Time;durP1;ratioP1;P1;durP2;ratioP2;P2;SDS_P1;SDS_P2;PMS_P1;PMS_P2;Temp;Humidity;BMP_temperature;BMP_pressure;BME280_temperature;BME280_humidity;BME280_pressure;Samples;Min_cycle;Max_cycle;Signal;HPM_P1;HPM_P2
2023/06/16 00:00:32;;;;;;;4.13;3.50;;;;;;;;;;5053262;28;20209;-86
2023/06/16 00:02:59;;;;;;;5.53;3.80;;;;;;;;;;5079445;28;20201;-87
2023/06/16 00:05:25;;;;;;;3.80;3.50;;;;;;;;;;5067332;28;20251;-86
2023/06/16 00:07:52;;;;;;;6.00;3.80;;;;;;;;;;5059052;28;20215;-87
2023/06/16 00:10:18;;;;;;;5.80;3.93;;;;;;;;;;5086755;28;20185;-86
2023/06/16 00:12:44;;;;;;;4.67;3.80;;;;;;;;;;5067361;28;20183;-87
2023/06/16 00:15:10;;;;;;;4.33;3.60;;;;;;;;;;5062933;28;20178;-87
2023/06/16 00:17:44;;;;;;;5.97;3.67;;;;;;;;;;5099726;28;20178;-87
2023/06/16 00:20:11;;;;;;;4.33;3.73;;;;;;;;;;5099578;28;20209;-86
2023/06/16 00:22:37;;;;;;;4.43;4.03;;;;;;;;;;5099655;28;20217;-87
2023/06/16 00:25:03;;;;;;;4.00;3.50;;;;;;;;;;5094008;28;20179;-86
2023/06/16 00:27:32;;;;;;;4.53;3.77;;;;;;;;;;5078844;28;20210;-87
2023/06/16 00:29:58;;;;;;;4.63;3.70;;;;;;;;;;5080372;28;20187;-87
2023/06/16 00:32:24;;;;;;;6.17;3.83;;;;;;;;;;5079230;28;20211;-87
2023/06/16 00:34:50;;;;;;;5.13;3.67;;;;;;;;;;5062491;28;20175;-87
2023/06/16 00:37:16;;;;;;;7.17;4.00;;;;;;;;;;5078877;28;20339;-86
2023/06/16 00:39:42;;;;;;;5.67;3.70;;;;;;;;;;5078885;28;20198;-87
2023/06/16 00:42:09;;;;;;;4.30;3.47;;;;;;;;;;5079354;28;20179;-87
2023/06/16 00:44:35;;;;;;;5.33;3.80;;;;;;;;;;5062605;28;20193;-87
2023/06/16 00:47:02;;;;;;;6.30;4.30;;;;;;;;;;5059488;28;20211;-87
2023/06/16 00:49:28;;;;;;;4.07;3.60;;;;;;;;;;5059000;28;20262;-86
2023/06/16 00:51:54;;;;;;;7.17;4.20;;;;;;;;;;5057470;28;20176;-87
2023/06/16 00:54:21;;;;;;;5.63;3.90;;;;;;;;;;5058453;28;20205;-87
2023/06/16 00:56:51;;;;;;;7.10;4.10;;;;;;;;;;5058710;28;20274;-87
2023/06/16 00:59:17;;;;;;;5.47;3.80;;;;;;;;;;5058714;28;20266;-87
2023/06/16 01:01:44;;;;;;;5.57;3.80;;;;;;;;;;5058637;28;20199;-87
2023/06/16 01:04:12;;;;;;;5.13;4.00;;;;;;;;;;5058327;28;20196;-87
2023/06/16 01:06:41;;;;;;;4.93;3.70;;;;;;;;;;5058633;28;20172;-87
2023/06/16 01:09:26;;;;;;;6.40;4.40;;;;;;;;;;5058406;28;20179;-87
2023/06/16 01:12:10;;;;;;;6.57;4.00;;;;;;;;;;5074971;28;20236;-87
2023/06/16 01:14:43;;;;;;;6.33;3.87;;;;;;;;;;5076950;28;20277;-87
2023/06/16 01:17:10;;;;;;;7.10;3.80;;;;;;;;;;5078374;28;20178;-87
2023/06/16 01:19:40;;;;;;;4.57;3.97;;;;;;;;;;5066245;28;20179;-87
2023/06/16 01:22:21;;;;;;;4.90;3.87;;;;;;;;;;5058383;28;20179;-87
2023/06/16 01:24:47;;;;;;;7.13;4.10;;;;;;;;;;5075595;28;20190;-86
2023/06/16 01:27:17;;;;;;;4.87;3.97;;;;;;;;;;5097579;28;20237;-87
2023/06/16 01:29:43;;;;;;;5.50;4.03;;;;;;;;;;5073378;28;20179;-87
2023/06/16 01:32:10;;;;;;;5.97;4.13;;;;;;;;;;5068582;28;20186;-87
2023/06/16 01:34:36;;;;;;;7.17;3.90;;;;;;;;;;5061502;28;20199;-87
2023/06/16 01:37:04;;;;;;;8.10;4.20;;;;;;;;;;5082372;28;20255;-88
2023/06/16 01:39:30;;;;;;;5.10;3.77;;;;;;;;;;5076154;28;20183;-87
2023/06/16 01:41:58;;;;;;;4.80;3.77;;;;;;;;;;5070857;28;20183;-87
2023/06/16 01:44:26;;;;;;;8.30;4.30;;;;;;;;;;5072708;28;20195;-87
2023/06/16 01:46:52;;;;;;;5.07;3.90;;;;;;;;;;5057671;28;20186;-87
2023/06/16 01:49:19;;;;;;;7.87;4.17;;;;;;;;;;5067425;28;20187;-87
2023/06/16 01:51:45;;;;;;;6.57;4.30;;;;;;;;;;5057571;28;20210;-87
2023/06/16 01:54:11;;;;;;;6.27;4.33;;;;;;;;;;5058480;28;20241;-87
2023/06/16 01:56:37;;;;;;;4.43;4.00;;;;;;;;;;5057663;28;20172;-87
2023/06/16 01:59:03;;;;;;;4.73;4.03;;;;;;;;;;5069776;28;20191;-87
2023/06/16 02:01:30;;;;;;;7.67;4.37;;;;;;;;;;5073852;28;20237;-87
2023/06/16 02:03:56;;;;;;;6.13;4.40;;;;;;;;;;5056917;28;20195;-87
2023/06/16 02:06:24;;;;;;;6.90;4.20;;;;;;;;;;5057394;28;20175;-87
2023/06/16 02:08:53;;;;;;;5.07;3.93;;;;;;;;;;5063007;28;20211;-87
2023/06/16 02:11:19;;;;;;;7.27;4.30;;;;;;;;;;5077060;28;20236;-87
2023/06/16 02:13:45;;;;;;;6.00;4.10;;;;;;;;;;5076079;28;20182;-86
2023/06/16 02:16:12;;;;;;;5.97;4.43;;;;;;;;;;5076379;28;20178;-87
2023/06/16 02:18:53;;;;;;;5.70;4.27;;;;;;;;;;5064791;28;20563;-76
2023/06/16 02:21:20;;;;;;;5.23;3.60;;;;;;;;;;5065572;28;20287;-76
2023/06/16 02:23:46;;;;;;;6.30;4.03;;;;;;;;;;5050298;28;20183;-76
2023/06/16 02:26:12;;;;;;;6.07;4.73;;;;;;;;;;5049804;28;20188;-76
2023/06/16 02:28:38;;;;;;;5.47;4.40;;;;;;;;;;5050388;28;20188;-76
2023/06/16 02:31:04;;;;;;;5.47;3.93;;;;;;;;;;5050637;28;20194;-76
2023/06/16 02:33:30;;;;;;;4.53;3.80;;;;;;;;;;5049149;28;20207;-76
2023/06/16 02:35:56;;;;;;;5.43;4.00;;;;;;;;;;5073347;28;20184;-76
2023/06/16 02:38:22;;;;;;;5.30;4.23;;;;;;;;;;5048055;28;20212;-76
2023/06/16 02:40:48;;;;;;;7.53;4.40;;;;;;;;;;5031140;28;20188;-76
2023/06/16 02:43:14;;;;;;;6.00;4.13;;;;;;;;;;5045597;28;20187;-76
2023/06/16 02:45:40;;;;;;;10.43;4.27;;;;;;;;;;5050894;28;20184;-87
2023/06/16 02:48:06;;;;;;;6.63;4.50;;;;;;;;;;5032503;28;20184;-86
2023/06/16 02:50:32;;;;;;;5.07;4.20;;;;;;;;;;5049301;28;20188;-86
2023/06/16 02:52:58;;;;;;;4.93;4.40;;;;;;;;;;5034024;28;20188;-86
2023/06/16 02:55:24;;;;;;;6.53;4.50;;;;;;;;;;5029665;28;20195;-86
2023/06/16 02:57:51;;;;;;;4.67;4.23;;;;;;;;;;5049249;28;20206;-87
2023/06/16 03:00:18;;;;;;;5.97;4.63;;;;;;;;;;5049079;28;20187;-77
2023/06/16 03:02:44;;;;;;;4.70;4.30;;;;;;;;;;5048969;28;20195;-76
2023/06/16 03:05:10;;;;;;;9.77;4.80;;;;;;;;;;5049322;28;20176;-76
2023/06/16 03:07:36;;;;;;;4.90;4.17;;;;;;;;;;5032695;28;20188;-76
2023/06/16 03:10:09;;;;;;;5.37;4.10;;;;;;;;;;5049179;28;20260;-76
2023/06/16 03:12:35;;;;;;;6.17;4.47;;;;;;;;;;5049064;28;20203;-76
2023/06/16 03:15:01;;;;;;;4.73;4.30;;;;;;;;;;5068563;28;20183;-76
2023/06/16 03:17:27;;;;;;;5.20;4.30;;;;;;;;;;5055996;28;20220;-87
2023/06/16 03:19:53;;;;;;;4.50;4.10;;;;;;;;;;5049823;28;20274;-86
2023/06/16 03:22:20;;;;;;;6.03;4.70;;;;;;;;;;5049014;28;20176;-86
2023/06/16 03:24:47;;;;;;;6.37;4.90;;;;;;;;;;5032498;28;20302;-87
2023/06/16 03:27:15;;;;;;;5.07;4.57;;;;;;;;;;5061236;28;20187;-87
2023/06/16 03:29:42;;;;;;;6.60;5.07;;;;;;;;;;5038956;28;20181;-87
2023/06/16 03:32:08;;;;;;;10.13;5.13;;;;;;;;;;5043199;28;20226;-87
2023/06/16 03:34:35;;;;;;;6.27;5.13;;;;;;;;;;5038988;28;20196;-73
2023/06/16 03:37:01;;;;;;;6.13;4.93;;;;;;;;;;5054683;28;20226;-73
2023/06/16 03:39:27;;;;;;;6.50;5.03;;;;;;;;;;5038812;28;20267;-73
2023/06/16 03:41:53;;;;;;;7.60;4.77;;;;;;;;;;5055201;28;20176;-72
2023/06/16 03:44:19;;;;;;;5.57;5.00;;;;;;;;;;5055268;28;20242;-73
2023/06/16 03:46:45;;;;;;;5.27;4.77;;;;;;;;;;5038586;28;20184;-73
2023/06/16 03:49:11;;;;;;;6.17;4.93;;;;;;;;;;5047299;28;20184;-73
2023/06/16 03:51:39;;;;;;;5.27;4.77;;;;;;;;;;5043686;28;20198;-87
2023/06/16 03:54:05;;;;;;;5.63;4.73;;;;;;;;;;5037874;28;20200;-86
2023/06/16 03:56:32;;;;;;;5.57;4.77;;;;;;;;;;5015804;28;20217;-87
2023/06/16 03:58:58;;;;;;;6.63;5.17;;;;;;;;;;5015764;28;20174;-85
2023/06/16 04:01:24;;;;;;;5.43;4.67;;;;;;;;;;5035639;28;20180;-87
2023/06/16 04:03:50;;;;;;;8.10;4.50;;;;;;;;;;5037824;28;20188;-87
2023/06/16 04:06:16;;;;;;;7.07;4.70;;;;;;;;;;5038306;28;20187;-87
2023/06/16 04:08:44;;;;;;;7.83;4.80;;;;;;;;;;5055099;28;20183;-87
2023/06/16 04:11:10;;;;;;;5.27;4.77;;;;;;;;;;5039184;28;20208;-86
2023/06/16 04:13:36;;;;;;;5.33;4.40;;;;;;;;;;5034691;28;20238;-85
2023/06/16 04:16:02;;;;;;;7.13;5.00;;;;;;;;;;5036019;28;20181;-86
2023/06/16 04:18:29;;;;;;;5.20;4.70;;;;;;;;;;5034653;28;20232;-86
2023/06/16 04:20:55;;;;;;;7.43;4.80;;;;;;;;;;5035292;28;20176;-87
2023/06/16 04:23:21;;;;;;;6.87;4.63;;;;;;;;;;5021525;28;20271;-73
2023/06/16 04:25:47;;;;;;;6.27;4.63;;;;;;;;;;5037812;28;20176;-73
2023/06/16 04:28:14;;;;;;;7.27;4.80;;;;;;;;;;5038045;28;20180;-73
2023/06/16 04:30:43;;;;;;;6.50;4.83;;;;;;;;;;5034021;28;20181;-73
2023/06/16 04:33:10;;;;;;;7.00;5.33;;;;;;;;;;5034418;28;20260;-73
2023/06/16 04:35:39;;;;;;;9.43;5.10;;;;;;;;;;5014615;28;20188;-72
2023/06/16 04:38:06;;;;;;;5.10;4.37;;;;;;;;;;5014727;28;20256;-72
2023/06/16 04:40:32;;;;;;;7.90;5.17;;;;;;;;;;5014417;28;20328;-75
2023/06/16 04:42:58;;;;;;;5.33;4.83;;;;;;;;;;5014676;28;20176;-76
2023/06/16 04:45:26;;;;;;;5.43;4.93;;;;;;;;;;5050764;28;20188;-76
2023/06/16 04:47:52;;;;;;;8.67;4.60;;;;;;;;;;5055402;28;20180;-76
2023/06/16 04:50:18;;;;;;;6.67;5.13;;;;;;;;;;5054223;28;20206;-76
2023/06/16 04:52:47;;;;;;;8.57;5.07;;;;;;;;;;5055357;28;20191;-76
2023/06/16 04:55:17;;;;;;;7.20;5.33;;;;;;;;;;5054580;28;20202;-76
2023/06/16 04:57:43;;;;;;;6.60;5.67;;;;;;;;;;5026925;28;20217;-86
2023/06/16 05:00:09;;;;;;;6.77;5.20;;;;;;;;;;5029643;28;20180;-87
2023/06/16 05:02:37;;;;;;;10.57;4.90;;;;;;;;;;5034613;28;20188;-87
2023/06/16 05:05:03;;;;;;;6.10;5.27;;;;;;;;;;5067624;28;20240;-87
2023/06/16 05:07:29;;;;;;;7.97;5.53;;;;;;;;;;5034336;28;20180;-86
2023/06/16 05:09:55;;;;;;;6.33;5.73;;;;;;;;;;5034148;28;20191;-87
2023/06/16 05:12:21;;;;;;;6.70;6.00;;;;;;;;;;5051144;28;20189;-86
2023/06/16 05:14:47;;;;;;;6.30;5.60;;;;;;;;;;5050425;28;20249;-76
2023/06/16 05:17:13;;;;;;;8.03;5.80;;;;;;;;;;5049558;28;20232;-76
2023/06/16 05:19:39;;;;;;;7.03;6.17;;;;;;;;;;5030716;28;20336;-76
2023/06/16 05:22:05;;;;;;;7.20;5.87;;;;;;;;;;5047125;28;20253;-76
2023/06/16 05:24:31;;;;;;;7.10;6.00;;;;;;;;;;5033346;28;20233;-76
2023/06/16 05:26:57;;;;;;;9.33;6.30;;;;;;;;;;5034574;28;20275;-76
2023/06/16 05:29:23;;;;;;;6.57;5.70;;;;;;;;;;5034986;28;20181;-76
2023/06/16 05:31:50;;;;;;;6.70;6.00;;;;;;;;;;5017403;28;20195;-76
2023/06/16 05:34:16;;;;;;;8.53;6.23;;;;;;;;;;5033669;28;20188;-77
2023/06/16 05:36:42;;;;;;;11.17;6.20;;;;;;;;;;5035976;28;20188;-77
2023/06/16 05:39:08;;;;;;;6.77;6.03;;;;;;;;;;5041449;28;20239;-76
2023/06/16 05:41:35;;;;;;;9.27;5.60;;;;;;;;;;5034229;28;20185;-76
2023/06/16 05:44:01;;;;;;;8.23;5.73;;;;;;;;;;5052386;28;20172;-77
2023/06/16 05:46:27;;;;;;;8.00;5.57;;;;;;;;;;5043642;28;20184;-76
2023/06/16 05:48:54;;;;;;;6.73;5.63;;;;;;;;;;5037308;28;20185;-87
2023/06/16 05:51:20;;;;;;;7.97;5.70;;;;;;;;;;5047784;28;20263;-87
2023/06/16 05:53:46;;;;;;;8.33;5.93;;;;;;;;;;5053305;28;20214;-87
2023/06/16 05:56:12;;;;;;;6.90;5.37;;;;;;;;;;5053456;28;20187;-87
2023/06/16 05:58:38;;;;;;;10.90;5.53;;;;;;;;;;5045721;28;20219;-83
2023/06/16 06:01:06;;;;;;;5.68;4.97;;;;;;;;;;5036329;28;20408;-82
2023/06/16 06:03:32;;;;;;;8.18;5.72;;;;;;;;;;5052766;28;20403;-75
2023/06/16 06:05:58;;;;;;;8.20;5.30;;;;;;;;;;5053281;28;20317;-76
2023/06/16 06:08:27;;;;;;;7.10;5.20;;;;;;;;;;5053543;28;20210;-76
2023/06/16 06:10:54;;;;;;;9.27;5.30;;;;;;;;;;5053455;28;20176;-76
2023/06/16 06:13:20;;;;;;;5.57;4.67;;;;;;;;;;5030768;28;20177;-76
2023/06/16 06:15:46;;;;;;;10.63;8.97;;;;;;;;;;5014731;28;20177;-76
2023/06/16 06:18:12;;;;;;;9.17;7.10;;;;;;;;;;5012688;28;20233;-77
2023/06/16 06:20:39;;;;;;;7.43;6.40;;;;;;;;;;5013305;28;20177;-78
2023/06/16 06:23:05;;;;;;;7.00;5.40;;;;;;;;;;5046240;28;20189;-78
2023/06/16 06:25:32;;;;;;;6.07;4.90;;;;;;;;;;5034466;28;20266;-77
2023/06/16 06:27:58;;;;;;;6.37;4.67;;;;;;;;;;5052725;28;20214;-78
2023/06/16 06:30:27;;;;;;;6.63;4.60;;;;;;;;;;5040424;28;20194;-77
2023/06/16 06:32:53;;;;;;;4.67;4.13;;;;;;;;;;5036270;28;20181;-77
2023/06/16 06:35:19;;;;;;;5.10;4.60;;;;;;;;;;4996754;28;20185;-79
2023/06/16 06:37:45;;;;;;;7.43;4.40;;;;;;;;;;4996596;28;20221;-78
2023/06/16 06:40:11;;;;;;;10.23;4.73;;;;;;;;;;5023850;28;20180;-80
2023/06/16 06:42:37;;;;;;;5.97;4.17;;;;;;;;;;5032561;28;20184;-78
2023/06/16 06:45:04;;;;;;;5.10;4.00;;;;;;;;;;5025766;28;20180;-78
2023/06/16 06:47:30;;;;;;;5.03;4.03;;;;;;;;;;5017943;28;20192;-78
2023/06/16 06:49:56;;;;;;;8.17;4.40;;;;;;;;;;5022127;28;20190;-78
2023/06/16 06:52:22;;;;;;;11.67;4.43;;;;;;;;;;5031450;28;20172;-78
2023/06/16 06:54:47;;;;;;;8.40;4.20;;;;;;;;;;5039845;28;20188;-85
2023/06/16 06:57:14;;;;;;;7.87;3.83;;;;;;;;;;5014622;28;20237;-82
2023/06/16 06:59:43;;;;;;;11.70;4.43;;;;;;;;;;5013366;28;20196;-86
2023/06/16 07:02:09;;;;;;;5.63;4.07;;;;;;;;;;5014065;28;20190;-79
2023/06/16 07:04:38;;;;;;;11.50;4.33;;;;;;;;;;5026039;28;20177;-79
2023/06/16 07:07:04;;;;;;;8.23;4.00;;;;;;;;;;5052946;28;20188;-78
2023/06/16 07:09:30;;;;;;;8.27;3.80;;;;;;;;;;5055948;28;20215;-80
2023/06/16 07:11:57;;;;;;;13.87;4.40;;;;;;;;;;5047004;28;20188;-79
2023/06/16 07:14:23;;;;;;;11.63;4.07;;;;;;;;;;5016145;28;20189;-78
2023/06/16 07:16:49;;;;;;;9.77;3.90;;;;;;;;;;5032284;28;20211;-78
2023/06/16 07:19:15;;;;;;;6.90;3.77;;;;;;;;;;5032696;28;20185;-79
2023/06/16 07:21:41;;;;;;;4.70;4.13;;;;;;;;;;5034741;28;20189;-81
2023/06/16 07:24:07;;;;;;;6.20;3.90;;;;;;;;;;5016069;28;20189;-78
2023/06/16 07:26:33;;;;;;;7.07;3.87;;;;;;;;;;5016388;28;20247;-79
2023/06/16 07:29:00;;;;;;;5.63;4.07;;;;;;;;;;5014907;28;20193;-80
2023/06/16 07:31:26;;;;;;;5.37;3.80;;;;;;;;;;5057771;28;20177;-79
2023/06/16 07:33:52;;;;;;;7.27;4.10;;;;;;;;;;5036145;28;20243;-79
2023/06/16 07:36:18;;;;;;;4.33;3.83;;;;;;;;;;5036918;28;20212;-79
2023/06/16 07:38:45;;;;;;;5.30;3.60;;;;;;;;;;5036480;28;20299;-79
2023/06/16 07:41:11;;;;;;;4.27;3.87;;;;;;;;;;5051941;28;20271;-79
2023/06/16 07:43:37;;;;;;;9.73;3.87;;;;;;;;;;5051759;28;20235;-79
2023/06/16 07:46:03;;;;;;;6.20;3.50;;;;;;;;;;5037740;28;20192;-79
2023/06/16 07:48:29;;;;;;;4.73;3.70;;;;;;;;;;5053791;28;20188;-79
2023/06/16 07:50:55;;;;;;;8.87;4.03;;;;;;;;;;5018943;28;20216;-79
2023/06/16 07:53:21;;;;;;;5.67;3.90;;;;;;;;;;5040409;28;20239;-78
2023/06/16 07:55:47;;;;;;;6.00;3.90;;;;;;;;;;5035299;28;20291;-78
2023/06/16 07:58:13;;;;;;;3.80;3.47;;;;;;;;;;5036335;28;20268;-78
2023/06/16 08:00:39;;;;;;;5.10;3.50;;;;;;;;;;5035448;28;20176;-79
2023/06/16 08:03:06;;;;;;;9.60;4.40;;;;;;;;;;5035269;28;20183;-79
2023/06/16 08:05:32;;;;;;;4.63;4.13;;;;;;;;;;5000541;28;20208;-79
2023/06/16 08:07:58;;;;;;;5.90;3.85;;;;;;;;;;5031785;28;20255;-80
2023/06/16 08:10:25;;;;;;;4.13;3.78;;;;;;;;;;5031791;28;20188;-79
2023/06/16 08:12:51;;;;;;;5.57;4.30;;;;;;;;;;5016494;28;20172;-79
2023/06/16 08:15:18;;;;;;;16.60;14.95;;;;;;;;;;5031980;28;20178;-79
2023/06/16 08:17:44;;;;;;;5.13;3.90;;;;;;;;;;5016358;28;20221;-79
2023/06/16 08:20:10;;;;;;;5.93;3.58;;;;;;;;;;5015254;28;20264;-79
2023/06/16 08:22:37;;;;;;;5.65;3.72;;;;;;;;;;5031378;28;20185;-78
2023/06/16 08:25:04;;;;;;;5.45;3.60;;;;;;;;;;5015535;28;20184;-78
2023/06/16 08:27:30;;;;;;;4.20;3.80;;;;;;;;;;5015380;28;20173;-79
2023/06/16 08:29:56;;;;;;;5.35;3.70;;;;;;;;;;5015189;28;20181;-79
2023/06/16 08:32:22;;;;;;;4.15;3.80;;;;;;;;;;5015446;28;20208;-79
2023/06/16 08:34:48;;;;;;;3.67;3.38;;;;;;;;;;5015083;28;20182;-85
2023/06/16 08:37:14;;;;;;;7.75;3.80;;;;;;;;;;5021119;28;20214;-84
2023/06/16 08:39:44;;;;;;;4.00;3.60;;;;;;;;;;5034780;28;20256;-85
2023/06/16 08:42:13;;;;;;;5.68;3.60;;;;;;;;;;5035763;28;20204;-85
2023/06/16 08:44:42;;;;;;;5.32;3.80;;;;;;;;;;5034595;28;20171;-85
2023/06/16 08:47:09;;;;;;;5.60;3.88;;;;;;;;;;5034425;28;20180;-87
2023/06/16 08:49:35;;;;;;;4.07;3.67;;;;;;;;;;5018100;28;20188;-86
2023/06/16 08:52:02;;;;;;;4.13;3.83;;;;;;;;;;5034527;28;20181;-79
2023/06/16 08:54:31;;;;;;;4.15;3.75;;;;;;;;;;5035482;28;20177;-79
2023/06/16 08:57:01;;;;;;;7.07;3.97;;;;;;;;;;5034338;28;20359;-79
2023/06/16 08:59:28;;;;;;;10.80;4.13;;;;;;;;;;5035360;28;20196;-79
2023/06/16 09:01:54;;;;;;;4.20;3.67;;;;;;;;;;5034379;28;20185;-79
2023/06/16 09:04:20;;;;;;;5.20;3.63;;;;;;;;;;5004111;28;20215;-79
2023/06/16 09:06:56;;;;;;;4.68;3.80;;;;;;;;;;5015125;28;20177;-81
2023/06/16 09:09:22;;;;;;;4.35;3.92;;;;;;;;;;5022365;28;20267;-83
2023/06/16 09:12:07;;;;;;;4.80;3.88;;;;;;;;;;5034283;28;20177;-84
2023/06/16 09:14:33;;;;;;;5.75;3.58;;;;;;;;;;5033535;28;20183;-79
2023/06/16 09:17:03;;;;;;;4.38;3.60;;;;;;;;;;5033428;28;20212;-79
2023/06/16 09:19:30;;;;;;;3.92;3.53;;;;;;;;;;5018044;28;20184;-79
2023/06/16 09:21:59;;;;;;;4.68;3.60;;;;;;;;;;5015601;28;20209;-79
2023/06/16 09:24:26;;;;;;;4.93;3.78;;;;;;;;;;5013886;28;20179;-79
2023/06/16 09:26:53;;;;;;;10.15;4.00;;;;;;;;;;5014109;28;20207;-78
2023/06/16 09:29:24;;;;;;;5.60;3.72;;;;;;;;;;5013666;28;20177;-79
2023/06/16 09:31:50;;;;;;;4.10;3.38;;;;;;;;;;5014646;28;20170;-78
2023/06/16 09:34:16;;;;;;;18.80;3.95;;;;;;;;;;5029914;28;20186;-79
2023/06/16 09:36:43;;;;;;;6.43;4.00;;;;;;;;;;5013421;28;20185;-79
2023/06/16 09:39:25;;;;;;;4.10;3.70;;;;;;;;;;5013455;28;20177;-79
2023/06/16 09:41:51;;;;;;;4.07;3.53;;;;;;;;;;5030131;28;20267;-80
2023/06/16 09:44:17;;;;;;;4.82;3.95;;;;;;;;;;5030324;28;20182;-80
2023/06/16 09:46:43;;;;;;;3.92;3.63;;;;;;;;;;5030046;28;20178;-80
2023/06/16 09:49:24;;;;;;;4.32;3.72;;;;;;;;;;5029753;28;20184;-80
2023/06/16 09:51:54;;;;;;;4.75;3.83;;;;;;;;;;5013260;28;20173;-80
2023/06/16 09:54:21;;;;;;;5.43;3.80;;;;;;;;;;5029599;28;20186;-79
2023/06/16 09:56:47;;;;;;;4.32;3.92;;;;;;;;;;5029513;28;20174;-76
2023/06/16 09:59:13;;;;;;;4.05;3.50;;;;;;;;;;5013244;28;20173;-77
2023/06/16 10:01:40;;;;;;;4.25;3.53;;;;;;;;;;5013896;28;20219;-76
2023/06/16 10:04:07;;;;;;;4.80;3.70;;;;;;;;;;5044792;28;20208;-76
2023/06/16 10:06:36;;;;;;;4.85;3.60;;;;;;;;;;5012957;28;20176;-76
2023/06/16 10:09:02;;;;;;;6.55;3.97;;;;;;;;;;5013526;28;20182;-76
2023/06/16 10:11:29;;;;;;;4.32;3.92;;;;;;;;;;5014161;28;20299;-77
2023/06/16 10:13:57;;;;;;;5.88;3.70;;;;;;;;;;5013006;28;20240;-80
2023/06/16 10:16:28;;;;;;;4.63;3.97;;;;;;;;;;5012826;28;20177;-80
2023/06/16 10:18:57;;;;;;;6.30;3.88;;;;;;;;;;5012596;28;20228;-79
2023/06/16 10:21:23;;;;;;;5.25;3.92;;;;;;;;;;5012778;28;20181;-79
2023/06/16 10:23:50;;;;;;;11.98;3.58;;;;;;;;;;5012943;28;20184;-80
2023/06/16 10:26:16;;;;;;;6.07;4.00;;;;;;;;;;5013077;28;20186;-79
2023/06/16 10:28:42;;;;;;;12.95;4.20;;;;;;;;;;5013259;28;20215;-79
2023/06/16 10:31:09;;;;;;;5.20;4.30;;;;;;;;;;5013935;28;20231;-86
2023/06/16 10:33:54;;;;;;;4.55;3.95;;;;;;;;;;5013147;28;20421;-86
2023/06/16 10:36:40;;;;;;;7.10;4.25;;;;;;;;;;5013060;28;20188;-87
2023/06/16 10:39:09;;;;;;;14.40;4.53;;;;;;;;;;5014287;28;20205;-85
2023/06/16 10:41:48;;;;;;;5.03;4.32;;;;;;;;;;5020115;28;20176;-86
2023/06/16 10:44:23;;;;;;;7.85;4.10;;;;;;;;;;5036911;28;20176;-85
2023/06/16 10:47:08;;;;;;;5.43;4.55;;;;;;;;;;5037055;28;20191;-81
2023/06/16 10:49:43;;;;;;;7.90;4.18;;;;;;;;;;5036287;28;20211;-80
2023/06/16 10:52:09;;;;;;;8.88;4.05;;;;;;;;;;5036324;28;20223;-80
2023/06/16 10:54:43;;;;;;;5.15;3.85;;;;;;;;;;5052691;28;20333;-80
2023/06/16 10:57:10;;;;;;;5.13;4.13;;;;;;;;;;5036020;28;20193;-80
2023/06/16 10:59:55;;;;;;;5.95;4.07;;;;;;;;;;5036276;28;20173;-80
2023/06/16 11:02:25;;;;;;;5.90;4.20;;;;;;;;;;5035843;28;20454;-80
2023/06/16 11:05:09;;;;;;;4.60;3.90;;;;;;;;;;5046228;28;20189;-86
2023/06/16 11:08:11;;;;;;;4.38;3.88;;;;;;;;;;5017679;28;20180;-86
2023/06/16 11:10:53;;;;;;;4.90;4.40;;;;;;;;;;5032984;28;20191;-86
2023/06/16 11:13:23;;;;;;;4.97;4.15;;;;;;;;;;5033029;28;20185;-86
2023/06/16 11:15:49;;;;;;;4.30;3.95;;;;;;;;;;5017507;28;20248;-86
2023/06/16 11:18:17;;;;;;;4.13;3.60;;;;;;;;;;5032508;28;20304;-87
2023/06/16 11:20:43;;;;;;;5.75;4.10;;;;;;;;;;5017533;28;20173;-80
2023/06/16 11:23:09;;;;;;;4.63;4.13;;;;;;;;;;5032521;28;20173;-81
2023/06/16 11:25:38;;;;;;;5.25;3.78;;;;;;;;;;5032523;28;20182;-80
2023/06/16 11:28:05;;;;;;;4.68;3.97;;;;;;;;;;5031791;28;20220;-80
2023/06/16 11:30:31;;;;;;;4.38;3.97;;;;;;;;;;5048753;28;20243;-80
2023/06/16 11:32:57;;;;;;;4.57;4.18;;;;;;;;;;5032258;28;20181;-80
2023/06/16 11:35:30;;;;;;;4.45;4.05;;;;;;;;;;5048783;23;20227;-81
2023/06/16 11:37:56;;;;;;;5.47;4.10;;;;;;;;;;5019304;28;20216;-82
2023/06/16 11:40:32;;;;;;;4.55;4.13;;;;;;;;;;5019113;28;20176;-82
2023/06/16 11:43:06;;;;;;;5.57;4.25;;;;;;;;;;5035413;28;20176;-81
2023/06/16 11:45:38;;;;;;;7.35;4.45;;;;;;;;;;5035456;28;20173;-82
2023/06/16 11:48:05;;;;;;;5.75;4.18;;;;;;;;;;5035454;28;20254;-81
2023/06/16 11:50:31;;;;;;;4.40;4.00;;;;;;;;;;5035088;28;20215;-82
2023/06/16 11:52:57;;;;;;;5.38;4.18;;;;;;;;;;5035446;28;20223;-82
2023/06/16 11:55:24;;;;;;;6.15;4.30;;;;;;;;;;5035511;28;20268;-79
2023/06/16 11:57:50;;;;;;;5.47;3.95;;;;;;;;;;5018667;28;20235;-82
2023/06/16 12:00:17;;;;;;;4.40;4.00;;;;;;;;;;5035279;28;20177;-82
2023/06/16 12:02:44;;;;;;;5.28;4.20;;;;;;;;;;5018680;28;20187;-82
2023/06/16 12:05:16;;;;;;;4.30;3.97;;;;;;;;;;5018719;28;20264;-82
2023/06/16 12:07:42;;;;;;;4.60;4.13;;;;;;;;;;5035076;28;20267;-82
2023/06/16 12:10:09;;;;;;;4.55;4.10;;;;;;;;;;5036241;28;20180;-82
2023/06/16 12:12:37;;;;;;;7.35;4.07;;;;;;;;;;5036117;28;20192;-82
2023/06/16 12:15:04;;;;;;;4.43;4.00;;;;;;;;;;5035008;28;20271;-82
2023/06/16 12:17:30;;;;;;;4.93;4.20;;;;;;;;;;5034710;28;20224;-82
2023/06/16 12:19:56;;;;;;;6.18;3.97;;;;;;;;;;5034832;28;20181;-82
2023/06/16 12:22:22;;;;;;;5.05;3.90;;;;;;;;;;5018587;28;20173;-82
2023/06/16 12:24:49;;;;;;;4.60;4.18;;;;;;;;;;5034587;28;20208;-82
2023/06/16 12:27:24;;;;;;;4.53;3.90;;;;;;;;;;5035076;28;20183;-81
2023/06/16 12:29:57;;;;;;;4.93;4.13;;;;;;;;;;5034824;28;20175;-80
2023/06/16 12:32:29;;;;;;;4.75;4.18;;;;;;;;;;5018337;28;20184;-79
2023/06/16 12:34:55;;;;;;;6.30;4.20;;;;;;;;;;5034890;28;20181;-80
2023/06/16 12:37:25;;;;;;;4.50;4.10;;;;;;;;;;5034254;28;20231;-80
2023/06/16 12:40:05;;;;;;;4.90;4.13;;;;;;;;;;5034451;28;20180;-80
2023/06/16 12:42:31;;;;;;;4.90;4.25;;;;;;;;;;5035530;28;20165;-80
2023/06/16 12:45:04;;;;;;;4.78;4.25;;;;;;;;;;5034149;28;20262;-82
2023/06/16 12:47:31;;;;;;;8.63;3.90;;;;;;;;;;5034284;28;20230;-83
2023/06/16 12:49:57;;;;;;;8.60;3.97;;;;;;;;;;5034343;28;20173;-79
2023/06/16 12:52:24;;;;;;;6.05;3.90;;;;;;;;;;5034094;28;20250;-79
2023/06/16 12:54:51;;;;;;;4.65;3.90;;;;;;;;;;5017722;28;20242;-79
2023/06/16 12:57:17;;;;;;;7.88;4.30;;;;;;;;;;5017433;28;20208;-80
2023/06/16 12:59:43;;;;;;;51.15;6.47;;;;;;;;;;5017969;28;20180;-79
2023/06/16 13:02:09;;;;;;;5.40;3.90;;;;;;;;;;5017116;28;20176;-82
2023/06/16 13:04:35;;;;;;;8.00;3.75;;;;;;;;;;5019695;28;20268;-82
2023/06/16 13:07:02;;;;;;;9.23;4.10;;;;;;;;;;4997796;28;20279;-80
2023/06/16 13:09:28;;;;;;;6.05;4.00;;;;;;;;;;5014401;28;20174;-80
2023/06/16 13:11:55;;;;;;;5.40;3.80;;;;;;;;;;5014396;28;20184;-80
2023/06/16 13:14:21;;;;;;;6.15;4.00;;;;;;;;;;5014119;28;20177;-79
2023/06/16 13:16:47;;;;;;;6.13;4.15;;;;;;;;;;5015250;28;20267;-79
2023/06/16 13:19:13;;;;;;;3.90;3.60;;;;;;;;;;5014236;28;20253;-79
2023/06/16 13:21:40;;;;;;;6.05;3.83;;;;;;;;;;4998777;28;20272;-79
2023/06/16 13:24:06;;;;;;;5.72;4.60;;;;;;;;;;5014249;28;20169;-79
2023/06/16 13:26:32;;;;;;;6.05;4.85;;;;;;;;;;4998035;28;20181;-79
2023/06/16 13:28:58;;;;;;;6.50;5.20;;;;;;;;;;5013851;28;20190;-79
2023/06/16 13:31:24;;;;;;;6.30;4.25;;;;;;;;;;5014400;28;20208;-79
2023/06/16 13:33:50;;;;;;;10.50;6.03;;;;;;;;;;5014302;28;20188;-79
2023/06/16 13:36:18;;;;;;;11.75;8.77;;;;;;;;;;5013476;28;20229;-79
2023/06/16 13:38:45;;;;;;;7.22;4.47;;;;;;;;;;5013829;28;20232;-79
2023/06/16 13:41:12;;;;;;;6.40;4.10;;;;;;;;;;5014698;28;20166;-79
2023/06/16 13:43:39;;;;;;;28.63;4.97;;;;;;;;;;5013403;28;20170;-80
2023/06/16 13:46:05;;;;;;;7.45;3.97;;;;;;;;;;5013251;28;20205;-79
2023/06/16 13:48:31;;;;;;;7.40;4.00;;;;;;;;;;5015837;28;20264;-79
2023/06/16 13:50:57;;;;;;;4.05;3.70;;;;;;;;;;5013806;28;20185;-80
2023/06/16 13:53:24;;;;;;;6.07;3.90;;;;;;;;;;4997210;28;20185;-80
2023/06/16 13:55:50;;;;;;;3.58;3.28;;;;;;;;;;5013149;28;20315;-80
2023/06/16 13:58:16;;;;;;;4.82;3.47;;;;;;;;;;5013511;28;20338;-79
2023/06/16 14:00:42;;;;;;;5.72;3.70;;;;;;;;;;5014218;28;20227;-80
2023/06/16 14:03:08;;;;;;;6.82;3.97;;;;;;;;;;5013308;28;20181;-79
2023/06/16 14:05:34;;;;;;;6.57;4.05;;;;;;;;;;4996996;28;20188;-82
2023/06/16 14:08:03;;;;;;;4.28;3.70;;;;;;;;;;5013251;28;20188;-79
2023/06/16 14:10:30;;;;;;;7.40;3.83;;;;;;;;;;5013491;28;20174;-79
2023/06/16 14:12:56;;;;;;;3.90;3.60;;;;;;;;;;5013152;28;20172;-79
2023/06/16 14:15:22;;;;;;;4.10;3.70;;;;;;;;;;5013004;28;20195;-79
2023/06/16 14:17:48;;;;;;;5.05;3.92;;;;;;;;;;4996702;28;20217;-79
2023/06/16 14:20:14;;;;;;;4.65;3.80;;;;;;;;;;5013070;28;20197;-79
2023/06/16 14:22:40;;;;;;;4.80;3.70;;;;;;;;;;5012920;28;20173;-78
2023/06/16 14:25:07;;;;;;;4.53;4.13;;;;;;;;;;5013566;28;20174;-82
2023/06/16 14:27:34;;;;;;;6.65;4.20;;;;;;;;;;5013248;28;20247;-81
2023/06/16 14:30:04;;;;;;;5.28;3.65;;;;;;;;;;4996975;28;20181;-80
2023/06/16 14:32:30;;;;;;;4.55;3.65;;;;;;;;;;5014332;28;20178;-82
2023/06/16 14:34:56;;;;;;;5.25;3.70;;;;;;;;;;4996520;28;20212;-81
2023/06/16 14:37:22;;;;;;;6.43;3.80;;;;;;;;;;4996322;28;20271;-80
2023/06/16 14:39:48;;;;;;;4.15;3.75;;;;;;;;;;5014031;28;20259;-80
2023/06/16 14:42:14;;;;;;;5.75;4.00;;;;;;;;;;4996949;28;20328;-81
2023/06/16 14:44:40;;;;;;;4.93;3.85;;;;;;;;;;4996580;28;20181;-80